Time;durP1;ratioP1;P1;durP2;ratioP2;P2;SDS_P1;SDS_P2;PMS_P1;PMS_P2;Temp;Humidity;BMP_temperature;BMP_pressure;BME280_temperature;BME280_humidity;BME280_pressure;Samples;Min_cycle;Max_cycle;Signal;HPM_P1;HPM_P2
2022/11/09 00:00:36;;;;;;;24.40;17.43;;;;;;;11.38;100.00;95053.69;5014221;28;20218;-60
2022/11/09 00:03:02;;;;;;;25.77;17.60;;;;;;;11.40;100.00;95051.84;5014200;28;20195;-60
2022/11/09 00:05:27;;;;;;;27.07;18.40;;;;;;;11.16;100.00;95029.19;5012809;28;20305;-61
2022/11/09 00:07:53;;;;;;;34.27;21.13;;;;;;;10.99;100.00;95022.09;5014228;28;20195;-62
2022/11/09 00:10:18;;;;;;;30.57;19.17;;;;;;;11.11;100.00;95031.28;5013894;28;20680;-60
2022/11/09 00:12:44;;;;;;;33.53;19.80;;;;;;;11.06;100.00;95032.59;5014132;28;20195;-62
2022/11/09 00:15:10;;;;;;;29.63;19.70;;;;;;;11.04;100.00;95025.09;5014113;28;20264;-60
2022/11/09 00:17:35;;;;;;;28.00;18.20;;;;;;;11.07;100.00;95045.19;5014191;28;20199;-61
2022/11/09 00:20:01;;;;;;;30.77;19.53;;;;;;;11.07;100.00;95035.00;5013820;28;20714;-63
2022/11/09 00:22:26;;;;;;;29.07;20.40;;;;;;;10.86;100.00;95017.22;5012630;28;20685;-59
2022/11/09 00:24:51;;;;;;;31.60;20.27;;;;;;;10.88;100.00;95024.72;5014118;28;20217;-60
2022/11/09 00:27:17;;;;;;;27.27;18.83;;;;;;;10.94;100.00;95029.31;5013723;28;20222;-59
2022/11/09 00:29:42;;;;;;;28.13;18.50;;;;;;;11.01;100.00;95029.63;5013715;28;20222;-59
2022/11/09 00:32:08;;;;;;;30.40;19.70;;;;;;;11.04;100.00;95047.19;5013685;28;20198;-58
2022/11/09 00:34:33;;;;;;;29.00;19.67;;;;;;;11.01;100.00;95040.59;5013614;28;20215;-60
2022/11/09 00:36:58;;;;;;;32.40;20.47;;;;;;;11.01;100.00;95029.63;5014227;28;20265;-60
2022/11/09 00:39:24;;;;;;;34.03;19.17;;;;;;;10.85;100.00;95018.13;5013549;28;20779;-62
2022/11/09 00:41:49;;;;;;;30.13;19.20;;;;;;;10.82;100.00;95020.94;5013846;28;20190;-58
2022/11/09 00:44:15;;;;;;;31.93;21.40;;;;;;;10.84;100.00;95023.34;5013750;28;20238;-59
2022/11/09 00:46:40;;;;;;;31.73;20.33;;;;;;;10.84;100.00;95023.34;5013655;28;20206;-62
2022/11/09 00:49:05;;;;;;;28.73;18.70;;;;;;;10.73;100.00;95025.91;5013547;28;20215;-61
2022/11/09 00:51:31;;;;;;;31.30;21.13;;;;;;;10.72;100.00;95024.31;5013502;28;20182;-60
2022/11/09 00:53:57;;;;;;;28.30;19.40;;;;;;;10.66;100.00;95029.88;5012302;28;20780;-62
2022/11/09 00:56:23;;;;;;;27.37;18.63;;;;;;;10.69;100.00;95022.00;5012623;28;20191;-62
2022/11/09 00:58:53;;;;;;;27.57;18.03;;;;;;;10.65;100.00;95013.81;5013277;28;20241;-58
2022/11/09 01:01:18;;;;;;;28.57;18.00;;;;;;;10.80;100.00;95032.16;5012145;28;20191;-59
2022/11/09 01:03:44;;;;;;;28.70;19.50;;;;;;;10.61;100.00;95026.88;5013233;28;20687;-61
2022/11/09 01:06:28;;;;;;;31.63;19.27;;;;;;;10.50;100.00;95014.22;5013128;28;20192;-60
2022/11/09 01:08:53;;;;;;;31.57;19.27;;;;;;;10.56;100.00;95029.00;5013663;28;20195;-58
2022/11/09 01:11:20;;;;;;;28.53;19.33;;;;;;;10.65;100.00;95026.53;5013325;28;20213;-58
2022/11/09 01:13:45;;;;;;;27.70;19.63;;;;;;;10.61;100.00;95029.44;5013223;28;20191;-60
2022/11/09 01:16:15;;;;;;;31.83;21.03;;;;;;;10.55;100.00;95024.81;5011671;28;20199;-60
2022/11/09 01:18:41;;;;;;;33.17;19.60;;;;;;;10.66;100.00;95034.97;5013092;28;20281;-62
2022/11/09 01:21:09;;;;;;;30.87;20.07;;;;;;;10.69;100.00;95040.63;5013018;28;20226;-60
2022/11/09 01:23:35;;;;;;;28.33;19.60;;;;;;;10.55;100.00;95024.81;5013144;28;20199;-58
2022/11/09 01:26:05;;;;;;;33.47;19.83;;;;;;;10.45;100.00;95016.31;5012848;28;20294;-60
2022/11/09 01:28:30;;;;;;;28.27;19.17;;;;;;;10.51;100.00;95020.91;5013001;28;20218;-62
2022/11/09 01:31:01;;;;;;;29.07;18.87;;;;;;;10.59;100.00;95018.56;5012944;28;20215;-62
2022/11/09 01:33:27;;;;;;;34.17;20.80;;;;;;;10.46;100.00;95006.03;5012811;28;20193;-60
2022/11/09 01:35:52;;;;;;;34.10;21.13;;;;;;;10.33;100.00;95009.63;5012703;28;20286;-58
2022/11/09 01:38:17;;;;;;;31.80;20.87;;;;;;;10.33;100.00;95017.25;5011796;28;20274;-61
2022/11/09 01:40:43;;;;;;;35.13;20.37;;;;;;;10.55;100.00;95022.28;5012862;28;20324;-61
2022/11/09 01:43:19;;;;;;;33.00;22.70;;;;;;;10.55;100.00;95012.94;5012730;28;20191;-60
2022/11/09 01:45:51;;;;;;;33.27;21.20;;;;;;;10.55;100.00;95010.38;5013251;28;20281;-59
2022/11/09 01:48:31;;;;;;;35.83;22.77;;;;;;;10.49;100.00;95010.88;5012819;28;20605;-61
2022/11/09 01:51:15;;;;;;;34.43;21.67;;;;;;;10.40;100.00;95008.25;5012914;28;20218;-61
2022/11/09 01:53:44;;;;;;;34.53;23.17;;;;;;;10.48;100.00;95011.00;5012653;28;20226;-60
2022/11/09 01:56:18;;;;;;;36.03;21.13;;;;;;;10.57;100.00;95012.81;5012750;28;20546;-59
2022/11/09 01:58:53;;;;;;;36.83;22.60;;;;;;;10.63;100.00;95004.69;5012626;28;20203;-62
2022/11/09 02:01:19;;;;;;;34.97;22.23;;;;;;;10.66;100.00;95012.09;5012455;28;20182;-61
2022/11/09 02:03:51;;;;;;;31.97;21.33;;;;;;;10.50;100.00;95009.16;5012372;28;20285;-60
2022/11/09 02:06:20;;;;;;;36.37;23.13;;;;;;;10.49;100.00;95013.41;5012470;28;20237;-59
2022/11/09 02:08:48;;;;;;;41.37;22.80;;;;;;;10.48;100.00;95011.81;5011262;28;20186;-61
2022/11/09 02:11:18;;;;;;;37.70;23.30;;;;;;;10.45;100.00;95006.97;5010928;28;20265;-60
2022/11/09 02:13:48;;;;;;;37.63;23.93;;;;;;;10.51;100.00;95013.28;5012123;28;20613;-58
2022/11/09 02:16:14;;;;;;;37.63;23.40;;;;;;;10.67;100.00;95021.31;5012092;28;20183;-59
2022/11/09 02:18:59;;;;;;;37.77;23.80;;;;;;;10.72;100.00;95026.88;5011978;28;20179;-62
2022/11/09 02:21:27;;;;;;;34.00;22.20;;;;;;;10.78;100.00;95027.19;5012178;28;20274;-58
2022/11/09 02:23:53;;;;;;;38.07;22.83;;;;;;;10.78;100.00;95024.66;5012034;28;20186;-60
2022/11/09 02:26:26;;;;;;;33.60;21.10;;;;;;;10.86;100.00;95034.19;5012033;28;20190;-58
2022/11/09 02:28:54;;;;;;;35.57;21.10;;;;;;;10.79;100.00;95033.06;5011998;28;20183;-59
2022/11/09 02:31:23;;;;;;;35.50;20.73;;;;;;;10.67;100.00;95029.75;5011780;28;20297;-61
2022/11/09 02:33:53;;;;;;;35.50;19.47;;;;;;;10.40;100.00;95024.31;5010581;28;20275;-59
2022/11/09 02:36:19;;;;;;;33.73;19.90;;;;;;;10.22;100.00;95030.00;5011884;28;20215;-57
2022/11/09 02:38:45;;;;;;;31.27;19.73;;;;;;;10.20;100.00;95035.19;5011729;28;20261;-60
2022/11/09 02:41:12;;;;;;;28.90;19.63;;;;;;;10.44;100.00;95032.50;5011924;28;20641;-64
2022/11/09 02:43:38;;;;;;;30.47;19.17;;;;;;;10.42;100.00;95024.19;5011886;28;20186;-58
2022/11/09 02:46:03;;;;;;;31.67;20.17;;;;;;;10.45;100.00;95026.47;5011648;28;20598;-61
2022/11/09 02:48:29;;;;;;;27.97;19.63;;;;;;;10.47;100.00;95025.44;5011816;28;20202;-58
2022/11/09 02:50:54;;;;;;;33.30;21.03;;;;;;;10.55;100.00;95035.00;5010333;28;20264;-60
2022/11/09 02:53:20;;;;;;;31.97;20.10;;;;;;;10.67;100.00;95037.38;5011699;28;20194;-59
2022/11/09 02:55:45;;;;;;;27.93;18.40;;;;;;;10.74;100.00;95037.72;5011690;28;20269;-60
2022/11/09 02:58:11;;;;;;;33.30;19.27;;;;;;;10.84;100.00;95041.97;5011436;28;20588;-60
2022/11/09 03:00:36;;;;;;;27.83;18.67;;;;;;;10.89;100.00;95039.03;5010049;28;20254;-59
2022/11/09 03:03:02;;;;;;;29.63;18.43;;;;;;;10.75;100.00;95034.22;5011811;28;20297;-60
2022/11/09 03:05:28;;;;;;;37.10;19.23;;;;;;;10.91;100.00;95044.78;5011229;28;20309;-58
2022/11/09 03:07:53;;;;;;;31.87;20.20;;;;;;;10.90;100.00;95049.09;5011282;28;20245;-58
2022/11/09 03:10:19;;;;;;;30.53;19.47;;;;;;;10.82;100.00;95043.00;5011028;28;20207;-60
2022/11/09 03:12:44;;;;;;;30.73;19.90;;;;;;;10.69;100.00;95035.53;5011490;28;20198;-57
2022/11/09 03:15:10;;;;;;;28.37;18.90;;;;;;;10.84;100.00;95043.69;5011311;28;20203;-64
2022/11/09 03:17:35;;;;;;;30.47;18.50;;;;;;;10.91;100.00;95050.69;5011588;28;20178;-58
2022/11/09 03:20:01;;;;;;;39.73;19.33;;;;;;;11.00;100.00;95054.25;5010966;28;20199;-60
2022/11/09 03:22:27;;;;;;;29.13;17.80;;;;;;;11.13;100.00;95059.19;5011547;28;20214;-60
2022/11/09 03:24:52;;;;;;;27.40;19.07;;;;;;;11.14;100.00;95076.03;5011142;28;20294;-58
2022/11/09 03:27:18;;;;;;;27.83;18.23;;;;;;;11.02;100.00;95052.41;5011558;28;20584;-62
2022/11/09 03:29:43;;;;;;;31.10;18.63;;;;;;;11.01;100.00;95053.31;5011157;28;20253;-58
2022/11/09 03:32:09;;;;;;;26.70;18.47;;;;;;;11.01;100.00;95060.16;5011045;28;20211;-62
2022/11/09 03:34:34;;;;;;;28.70;19.00;;;;;;;10.87;100.00;95056.97;5009631;28;20206;-60
2022/11/09 03:37:00;;;;;;;28.43;18.67;;;;;;;10.94;100.00;95053.00;5011325;28;20183;-60
2022/11/09 03:39:25;;;;;;;32.13;19.30;;;;;;;10.94;100.00;95059.84;5010912;28;20219;-59
2022/11/09 03:41:51;;;;;;;30.63;20.07;;;;;;;10.84;100.00;95059.75;5010912;28;20183;-59
2022/11/09 03:44:16;;;;;;;33.10;19.93;;;;;;;10.75;100.00;95046.94;5010690;28;20249;-59
2022/11/09 03:46:42;;;;;;;32.33;20.73;;;;;;;10.70;100.00;95046.50;5010989;28;20194;-59
2022/11/09 03:49:07;;;;;;;28.03;19.07;;;;;;;10.73;100.00;95053.88;5010687;28;20258;-60
2022/11/09 03:51:33;;;;;;;26.77;18.60;;;;;;;10.70;100.00;95054.16;5010930;28;20187;-58
2022/11/09 03:53:58;;;;;;;27.23;18.20;;;;;;;10.73;100.00;95054.69;5010753;28;20592;-60
2022/11/09 03:56:24;;;;;;;27.33;19.07;;;;;;;10.72;100.00;95065.81;5011025;28;20194;-59
2022/11/09 03:58:49;;;;;;;29.70;19.80;;;;;;;10.69;100.00;95055.88;5010838;28;20229;-60
2022/11/09 04:01:15;;;;;;;29.53;19.40;;;;;;;10.79;100.00;95058.50;5010800;28;20178;-58
2022/11/09 04:03:40;;;;;;;27.20;18.37;;;;;;;11.03;100.00;95109.19;5010515;28;20194;-58
2022/11/09 04:06:06;;;;;;;33.33;21.33;;;;;;;10.70;100.00;95062.59;5010958;28;20619;-60
2022/11/09 04:08:31;;;;;;;28.27;18.60;;;;;;;10.68;100.00;95069.53;5010636;28;20202;-60
2022/11/09 04:10:57;;;;;;;29.30;19.53;;;;;;;10.55;100.00;95053.59;5010434;28;20621;-58
2022/11/09 04:13:22;;;;;;;31.13;19.50;;;;;;;10.50;100.00;95062.53;5010555;28;20261;-61
2022/11/09 04:15:48;;;;;;;34.93;20.17;;;;;;;10.45;100.00;95040.00;5010418;28;20257;-62
2022/11/09 04:18:15;;;;;;;31.67;20.40;;;;;;;10.49;100.00;95038.84;5010442;28;20211;-62
2022/11/09 04:20:40;;;;;;;34.37;19.70;;;;;;;10.45;100.00;95041.72;5009061;28;20265;-62
2022/11/09 04:23:09;;;;;;;36.07;20.90;;;;;;;10.54;100.00;95056.28;5009151;28;20270;-60
2022/11/09 04:25:36;;;;;;;31.50;19.10;;;;;;;10.50;100.00;95058.25;5010258;28;20270;-60
2022/11/09 04:28:04;;;;;;;29.60;20.13;;;;;;;10.57;100.00;95068.72;5009059;28;20210;-63
2022/11/09 04:30:32;;;;;;;34.43;20.40;;;;;;;10.54;100.00;95056.28;5010057;28;20642;-60
2022/11/09 04:33:00;;;;;;;31.00;19.47;;;;;;;10.55;100.00;95066.31;5012723;28;20195;-58
2022/11/09 04:35:27;;;;;;;32.57;19.77;;;;;;;10.52;100.00;95063.22;5013551;28;20203;-62
2022/11/09 04:37:57;;;;;;;30.53;19.27;;;;;;;10.56;100.00;95070.50;5013456;28;20199;-61
2022/11/09 04:40:24;;;;;;;31.03;19.97;;;;;;;10.76;100.00;95086.72;5013653;28;20207;-62
2022/11/09 04:42:50;;;;;;;27.50;19.07;;;;;;;10.61;100.00;95070.91;5013382;28;20285;-62
2022/11/09 04:45:16;;;;;;;30.83;20.33;;;;;;;10.45;100.00;95056.97;5013345;28;20285;-59
2022/11/09 04:47:41;;;;;;;32.37;19.67;;;;;;;10.40;100.00;95048.91;5013395;28;20199;-60
2022/11/09 04:50:08;;;;;;;29.73;19.37;;;;;;;10.47;100.00;95053.41;5013261;28;20632;-60
2022/11/09 04:52:33;;;;;;;26.33;16.10;;;;;;;10.44;100.00;95060.47;5013728;28;20374;-60
2022/11/09 04:54:58;;;;;;;26.00;16.13;;;;;;;10.57;100.00;95094.16;5013715;28;20294;-62
2022/11/09 04:57:24;;;;;;;25.27;16.40;;;;;;;10.52;100.00;95098.78;5028777;28;20199;-62
2022/11/09 04:59:49;;;;;;;26.10;17.20;;;;;;;10.58;100.00;95103.41;5013351;28;20222;-61
2022/11/09 05:02:15;;;;;;;28.70;18.70;;;;;;;10.42;100.00;95080.91;5013240;28;20194;-58
2022/11/09 05:04:40;;;;;;;25.20;16.47;;;;;;;10.27;100.00;95069.38;5013282;28;20210;-60
2022/11/09 05:07:06;;;;;;;30.03;18.53;;;;;;;10.22;100.00;95068.13;5013621;28;20312;-59
2022/11/09 05:09:31;;;;;;;28.77;17.67;;;;;;;9.85;100.00;95072.59;5013010;28;20225;-60
2022/11/09 05:11:57;;;;;;;30.70;18.03;;;;;;;9.93;100.00;95076.19;5013433;28;20191;-61
2022/11/09 05:14:22;;;;;;;32.00;18.37;;;;;;;10.00;100.00;95074.78;5012973;28;20305;-59
2022/11/09 05:16:48;;;;;;;28.10;17.63;;;;;;;10.12;100.00;95091.66;5012930;28;20195;-59
2022/11/09 05:19:13;;;;;;;29.23;18.03;;;;;;;10.12;100.00;95099.28;5013153;28;20700;-58
2022/11/09 05:21:39;;;;;;;23.37;15.77;;;;;;;10.67;100.00;95067.91;5013010;28;20195;-61
2022/11/09 05:24:05;;;;;;;30.30;17.50;;;;;;;11.36;100.00;95084.38;5012648;28;20214;-62
2022/11/09 05:26:33;;;;;;;25.83;17.70;;;;;;;11.10;100.00;95078.03;5013161;28;20383;-60
2022/11/09 05:29:00;;;;;;;27.53;18.13;;;;;;;11.14;100.00;95134.56;5012908;28;20221;-60
2022/11/09 05:31:26;;;;;;;29.93;17.33;;;;;;;11.05;100.00;95131.00;5013664;28;20294;-64
2022/11/09 05:33:52;;;;;;;24.57;17.53;;;;;;;10.90;100.00;95122.03;5012987;28;20653;-60
2022/11/09 05:36:18;;;;;;;27.20;17.70;;;;;;;10.92;100.00;95143.09;5013017;28;20237;-61
2022/11/09 05:38:45;;;;;;;26.17;16.73;;;;;;;10.88;100.00;95137.44;5012697;28;20191;-60
2022/11/09 05:41:10;;;;;;;32.00;17.37;;;;;;;10.72;100.00;95131.13;5011481;28;20183;-60
2022/11/09 05:43:36;;;;;;;24.60;17.37;;;;;;;10.69;100.00;95119.44;5012779;28;20667;-62
2022/11/09 05:46:01;;;;;;;29.60;17.93;;;;;;;10.55;100.00;95103.63;5012531;28;20194;-60
2022/11/09 05:48:26;;;;;;;27.20;17.83;;;;;;;10.51;100.00;95105.59;5012685;28;20230;-61
2022/11/09 05:50:52;;;;;;;26.37;17.87;;;;;;;10.57;100.00;95114.47;5012518;28;20214;-59
2022/11/09 05:53:17;;;;;;;29.27;18.40;;;;;;;10.54;100.00;95096.94;5012738;28;20195;-58
2022/11/09 05:55:43;;;;;;;31.43;19.17;;;;;;;10.57;100.00;95111.94;5012582;28;20203;-59
2022/11/09 05:58:08;;;;;;;27.30;17.87;;;;;;;10.74;100.00;95129.25;5012479;28;20195;-60
2022/11/09 06:00:34;;;;;;;29.00;18.47;;;;;;;10.65;100.00;95120.59;5012419;28;20351;-60
2022/11/09 06:03:07;;;;;;;30.47;18.97;;;;;;;10.59;100.00;95105.00;5012462;28;20183;-60
2022/11/09 06:05:35;;;;;;;25.77;17.83;;;;;;;10.65;100.00;95114.69;5012207;28;20203;-61
2022/11/09 06:08:02;;;;;;;26.33;17.80;;;;;;;10.62;100.00;95112.41;5011964;28;20186;-62
2022/11/09 06:10:27;;;;;;;26.73;18.43;;;;;;;10.51;100.00;95102.25;5011984;28;20207;-57
2022/11/09 06:12:53;;;;;;;34.40;20.63;;;;;;;10.27;100.00;95099.88;5012372;28;20214;-61
2022/11/09 06:15:18;;;;;;;28.27;19.43;;;;;;;10.21;100.00;95100.34;5011966;28;20226;-62
2022/11/09 06:17:43;;;;;;;28.37;18.90;;;;;;;10.25;100.00;95105.97;5011841;28;20198;-60
2022/11/09 06:20:09;;;;;;;34.50;21.17;;;;;;;10.48;100.00;95123.66;5011855;28;20211;-62
2022/11/09 06:22:35;;;;;;;41.93;22.67;;;;;;;10.60;100.00;95132.06;5010739;28;20251;-62
2022/11/09 06:25:00;;;;;;;37.30;22.67;;;;;;;10.33;100.00;95134.97;5011742;28;20317;-59
2022/11/09 06:27:26;;;;;;;30.70;20.27;;;;;;;10.46;100.00;95124.69;5011988;28;20194;-58
2022/11/09 06:29:51;;;;;;;33.07;20.27;;;;;;;10.46;100.00;95134.84;5010216;28;20226;-58
2022/11/09 06:32:16;;;;;;;32.67;20.43;;;;;;;10.38;100.00;95132.09;5011764;28;20657;-59
2022/11/09 06:34:43;;;;;;;31.90;20.93;;;;;;;10.48;100.00;95128.75;5011714;28;20215;-60
2022/11/09 06:37:08;;;;;;;33.63;19.17;;;;;;;10.54;100.00;95133.34;5011689;28;20202;-60
2022/11/09 06:39:33;;;;;;;33.30;20.63;;;;;;;10.48;100.00;95138.09;5011643;28;20726;-59
2022/11/09 06:41:59;;;;;;;31.00;20.27;;;;;;;10.53;100.00;95125.81;5010457;28;20571;-61
2022/11/09 06:44:25;;;;;;;31.93;21.03;;;;;;;10.51;100.00;95127.66;5011376;28;20219;-61
2022/11/09 06:46:50;;;;;;;30.13;20.13;;;;;;;10.68;100.00;95132.28;5011769;28;20187;-61
2022/11/09 06:49:16;;;;;;;36.90;21.07;;;;;;;10.90;100.00;95134.75;5011695;28;20227;-58
2022/11/09 06:51:41;;;;;;;28.17;20.40;;;;;;;11.06;100.00;95147.91;5010377;28;20191;-59
2022/11/09 06:54:06;;;;;;;30.10;19.87;;;;;;;11.23;100.00;95147.34;5011229;28;20348;-58
2022/11/09 06:56:32;;;;;;;33.03;20.53;;;;;;;11.34;100.00;95159.25;5011626;28;20554;-59
2022/11/09 06:58:57;;;;;;;29.60;20.37;;;;;;;11.40;100.00;95159.56;5011526;28;20301;-59
2022/11/09 07:01:27;;;;;;;29.07;20.30;;;;;;;11.36;100.00;95170.09;5011500;28;20182;-60
2022/11/09 07:03:52;;;;;;;31.60;21.10;;;;;;;11.31;100.00;95160.28;5011190;28;20191;-60
2022/11/09 07:06:17;;;;;;;33.80;22.13;;;;;;;11.36;100.00;95153.09;5011253;28;20194;-60
2022/11/09 07:08:43;;;;;;;28.97;20.53;;;;;;;11.61;100.00;95167.22;5011100;28;20340;-60
2022/11/09 07:11:18;;;;;;;30.63;20.83;;;;;;;11.81;100.00;95171.56;5036909;23;20627;-60
2022/11/09 07:13:46;;;;;;;33.30;20.23;;;;;;;11.99;100.00;95208.28;5029811;28;20225;-60
2022/11/09 07:16:16;;;;;;;32.90;21.20;;;;;;;12.07;100.00;95205.91;5030723;28;20283;-59
2022/11/09 07:18:41;;;;;;;39.13;24.60;;;;;;;12.02;100.00;95189.38;5030805;28;20320;-60
2022/11/09 07:21:07;;;;;;;34.77;21.83;;;;;;;12.00;100.00;95166.56;5013135;28;20190;-61
2022/11/09 07:23:32;;;;;;;36.57;22.87;;;;;;;12.32;100.00;95210.59;5013081;28;20182;-61
2022/11/09 07:25:58;;;;;;;35.23;22.97;;;;;;;12.16;100.00;95169.47;5030748;28;20225;-60
2022/11/09 07:28:23;;;;;;;35.77;21.83;;;;;;;12.08;100.00;95165.94;5030619;28;20222;-60
2022/11/09 07:30:51;;;;;;;35.27;21.70;;;;;;;12.20;100.00;95159.84;5030568;28;20216;-60
2022/11/09 07:33:18;;;;;;;38.70;23.53;;;;;;;12.38;100.00;95168.50;5030750;28;20189;-60
2022/11/09 07:35:44;;;;;;;31.50;22.93;;;;;;;12.61;100.00;95175.00;5013139;28;20210;-61
2022/11/09 07:38:10;;;;;;;31.30;22.33;;;;;;;12.85;100.00;95208.66;5030702;28;20188;-62
2022/11/09 07:40:36;;;;;;;36.17;23.40;;;;;;;13.00;100.00;95209.09;5030441;28;20301;-60
2022/11/09 07:43:04;;;;;;;34.27;22.93;;;;;;;13.13;100.00;95207.16;5030669;28;20200;-60
2022/11/09 07:45:31;;;;;;;38.77;24.83;;;;;;;13.14;100.00;95219.78;5030775;28;20325;-60
2022/11/09 07:48:01;;;;;;;40.20;24.20;;;;;;;13.27;100.00;95212.69;5030639;28;20227;-60
2022/11/09 07:50:27;;;;;;;42.57;25.97;;;;;;;13.30;100.00;95237.97;5030791;28;20249;-61
2022/11/09 07:52:58;;;;;;;33.43;22.83;;;;;;;13.53;100.00;95235.16;5030653;28;20190;-63
2022/11/09 07:55:24;;;;;;;35.67;21.92;;;;;;;13.71;100.00;95248.91;5030836;28;20218;-62
2022/11/09 07:57:58;;;;;;;36.37;24.23;;;;;;;13.91;100.00;95251.31;5030733;28;20194;-59
2022/11/09 08:00:25;;;;;;;37.25;25.20;;;;;;;14.03;100.00;95272.44;5012594;28;20306;-62
2022/11/09 08:02:57;;;;;;;31.73;23.35;;;;;;;13.94;100.00;95270.66;5030415;28;20189;-61
2022/11/09 08:05:23;;;;;;;39.83;24.52;;;;;;;14.25;100.00;95274.69;5030345;28;20694;-63
2022/11/09 08:07:56;;;;;;;38.58;24.55;;;;;;;14.58;100.00;95315.22;5033039;28;20206;-62
2022/11/09 08:10:23;;;;;;;37.63;24.10;;;;;;;14.68;100.00;95297.28;5034655;28;20710;-62
2022/11/09 08:12:53;;;;;;;40.65;24.92;;;;;;;14.89;100.00;95283.31;5033891;28;20280;-61
2022/11/09 08:15:18;;;;;;;39.03;23.95;;;;;;;15.13;100.00;95322.03;5034019;28;20229;-60
2022/11/09 08:17:44;;;;;;;35.83;24.98;;;;;;;15.48;100.00;95349.56;5033975;28;20182;-63
2022/11/09 08:20:10;;;;;;;39.78;25.17;;;;;;;15.65;100.00;95340.31;5029106;22;20309;-63
2022/11/09 08:22:46;;;;;;;36.22;24.55;;;;;;;15.90;100.00;95370.38;5014231;28;20194;-60
2022/11/09 08:25:12;;;;;;;36.08;24.73;;;;;;;16.12;100.00;95369.16;5014077;28;20202;-62
2022/11/09 08:27:41;;;;;;;41.47;25.77;;;;;;;16.30;100.00;95396.44;5013910;28;20191;-60
2022/11/09 08:30:11;;;;;;;39.13;24.88;;;;;;;16.43;100.00;95406.34;5013990;28;20218;-62
2022/11/09 08:32:37;;;;;;;38.58;26.02;;;;;;;16.60;100.00;95420.97;5012613;28;20267;-59
2022/11/09 08:35:03;;;;;;;37.85;26.45;;;;;;;16.77;100.00;95431.22;5014057;28;20746;-60
2022/11/09 08:37:28;;;;;;;40.67;25.77;;;;;;;16.91;100.00;95440.16;5013557;28;20195;-58
2022/11/09 08:39:54;;;;;;;35.30;25.80;;;;;;;17.09;100.00;95445.28;5014042;28;20652;-60
2022/11/09 08:42:19;;;;;;;39.05;24.73;;;;;;;17.22;100.00;95466.25;5012785;28;20198;-63
2022/11/09 08:44:45;;;;;;;38.03;25.55;;;;;;;17.41;100.00;95443.69;5013956;28;20203;-61
2022/11/09 08:47:10;;;;;;;39.08;27.92;;;;;;;17.50;98.77;95499.41;4996039;28;20198;-61
2022/11/09 08:49:36;;;;;;;36.13;27.30;;;;;;;17.53;98.87;95480.31;5013491;28;20255;-61
2022/11/09 08:52:01;;;;;;;42.38;25.40;;;;;;;17.69;97.60;95497.59;5013545;28;20178;-61
2022/11/09 08:54:26;;;;;;;42.85;26.90;;;;;;;17.82;97.42;95482.53;5013758;28;20202;-60
2022/11/09 08:56:55;;;;;;;41.28;28.85;;;;;;;17.83;98.73;95437.84;5013331;28;20197;-61
2022/11/09 08:59:22;;;;;;;38.03;26.50;;;;;;;17.88;96.54;95485.28;5013697;28;20684;-58
2022/11/09 09:01:47;;;;;;;37.75;27.20;;;;;;;18.10;96.73;95486.53;5013230;28;20332;-63
2022/11/09 09:04:13;;;;;;;34.63;24.95;;;;;;;18.25;96.24;95488.34;5013438;28;20678;-63
2022/11/09 09:06:38;;;;;;;41.63;25.95;;;;;;;18.43;94.81;95514.03;5013434;28;20194;-63
2022/11/09 09:09:03;;;;;;;41.70;27.45;;;;;;;18.53;94.01;95519.84;5013301;28;20217;-63
2022/11/09 09:11:29;;;;;;;36.33;27.60;;;;;;;18.47;94.62;95486.19;5011866;28;20589;-62
2022/11/09 09:13:55;;;;;;;40.22;26.55;;;;;;;18.69;92.91;95526.81;5011781;28;20211;-61
2022/11/09 09:16:20;;;;;;;42.78;26.63;;;;;;;18.71;92.67;95519.72;5013126;28;20191;-62
2022/11/09 09:18:47;;;;;;;36.72;25.75;;;;;;;18.99;91.21;95564.88;5012679;28;20195;-61
2022/11/09 09:21:13;;;;;;;35.63;25.45;;;;;;;19.21;79.78;95549.59;5013033;28;20205;-62
2022/11/09 09:23:38;;;;;;;39.10;25.60;;;;;;;19.05;75.40;95557.31;5012897;28;20293;-62
2022/11/09 09:26:04;;;;;;;31.45;24.20;;;;;;;18.95;73.66;95510.25;5012903;28;20273;-62
2022/11/09 09:28:30;;;;;;;33.47;25.50;;;;;;;19.21;72.91;95521.22;5012835;28;20720;-62
2022/11/09 09:31:00;;;;;;;43.33;25.98;;;;;;;19.40;70.96;95556.25;5012689;28;20214;-63
2022/11/09 09:33:26;;;;;;;38.30;25.92;;;;;;;19.47;71.07;95539.16;5012605;28;20374;-63
2022/11/09 09:35:55;;;;;;;37.47;26.58;;;;;;;19.51;69.12;95576.56;5012556;28;20203;-63
2022/11/09 09:38:20;;;;;;;35.65;26.65;;;;;;;19.29;69.95;95539.28;5011301;28;20680;-63
2022/11/09 09:40:57;;;;;;;37.78;27.05;;;;;;;18.82;71.26;95498.81;5011219;28;20214;-62
2022/11/09 09:43:44;;;;;;;33.22;24.25;;;;;;;19.11;69.32;95542.97;5012436;28;20194;-61
2022/11/09 09:46:25;;;;;;;35.08;25.13;;;;;;;19.26;69.98;95511.25;5012476;28;20290;-63
2022/11/09 09:48:57;;;;;;;37.22;25.73;;;;;;;19.20;69.19;95529.94;5012428;28;20217;-62
2022/11/09 09:51:51;;;;;;;36.90;25.25;;;;;;;19.09;69.70;95513.97;5012089;28;20215;-62
2022/11/09 09:54:23;;;;;;;33.00;24.10;;;;;;;19.38;69.41;95516.09;5009050;28;20231;-63
2022/11/09 09:56:52;;;;;;;32.55;24.17;;;;;;;19.56;67.76;95543.34;5010871;28;20189;-62
2022/11/09 09:59:25;;;;;;;33.20;23.25;;;;;;;19.82;66.82;95562.00;5012225;28;20219;-63
2022/11/09 10:01:51;;;;;;;34.78;24.08;;;;;;;19.86;65.75;95583.94;5012190;28;20183;-63
2022/11/09 10:04:38;;;;;;;31.38;23.38;;;;;;;20.17;65.14;95593.56;5012293;28;20226;-62
2022/11/09 10:07:41;;;;;;;32.03;22.17;;;;;;;20.34;64.96;95587.44;5012103;28;20185;-63
2022/11/09 10:10:17;;;;;;;29.30;21.55;;;;;;;20.54;63.44;95623.03;5012249;28;20219;-63
2022/11/09 10:12:48;;;;;;;29.45;21.88;;;;;;;20.68;61.74;95655.13;5012105;28;20218;-63
2022/11/09 10:15:52;;;;;;;31.95;21.58;;;;;;;20.63;63.04;95613.47;5010541;28;20219;-62
2022/11/09 10:18:23;;;;;;;30.02;21.48;;;;;;;20.36;62.05;95616.47;4951599;29;20189;-61
2022/11/09 10:21:16;;;;;;;29.20;21.58;;;;;;;19.64;63.33;95556.22;4951273;28;20216;-62
2022/11/09 10:24:20;;;;;;;24.48;19.10;;;;;;;19.98;64.47;95541.31;4992933;28;20670;-62
2022/11/09 10:26:50;;;;;;;30.58;21.30;;;;;;;20.24;63.83;95553.25;5012230;28;20217;-63
2022/11/09 10:29:19;;;;;;;30.45;19.98;;;;;;;20.50;61.58;95618.38;5010835;28;20219;-62
2022/11/09 10:31:47;;;;;;;29.17;20.25;;;;;;;20.61;61.66;95599.91;5011582;28;20301;-61
2022/11/09 10:34:17;;;;;;;25.38;19.50;;;;;;;20.63;61.82;95603.13;5011460;28;20289;-63
2022/11/09 10:36:52;;;;;;;26.80;19.90;;;;;;;19.83;62.85;95544.75;5011709;28;20207;-62
2022/11/09 10:39:20;;;;;;;23.88;20.10;;;;;;;19.98;62.35;95556.81;5011503;28;20313;-63
2022/11/09 10:41:46;;;;;;;25.77;19.20;;;;;;;20.08;62.75;95546.28;5011482;28;20276;-62
2022/11/09 10:44:16;;;;;;;25.77;19.50;;;;;;;20.26;62.17;95557.25;5011616;28;20673;-62
2022/11/09 10:47:00;;;;;;;29.45;19.25;;;;;;;20.42;61.71;95564.94;5011302;28;20269;-63
2022/11/09 10:49:26;;;;;;;25.70;17.25;;;;;;;20.69;62.04;95558.53;5011422;28;20689;-62
2022/11/09 10:51:51;;;;;;;22.70;16.77;;;;;;;20.65;58.56;95633.00;5011405;28;20191;-62
2022/11/09 10:54:27;;;;;;;23.50;16.70;;;;;;;20.54;60.28;95567.97;5011377;28;20582;-61
2022/11/09 10:57:08;;;;;;;21.95;16.90;;;;;;;20.33;60.70;95544.47;5011245;28;20178;-62
2022/11/09 10:59:52;;;;;;;21.95;17.23;;;;;;;20.44;60.30;95562.22;5011411;28;20587;-62
2022/11/09 11:02:24;;;;;;;24.17;17.42;;;;;;;20.68;59.29;95591.34;5011313;28;20187;-62
2022/11/09 11:05:05;;;;;;;25.67;16.85;;;;;;;20.70;58.38;95607.47;5009584;28;20289;-62
2022/11/09 11:07:35;;;;;;;28.80;18.08;;;;;;;20.43;59.50;95558.00;5011019;28;20189;-62
2022/11/09 11:10:21;;;;;;;23.15;17.38;;;;;;;20.31;60.32;95533.50;5011175;28;20218;-63
2022/11/09 11:12:58;;;;;;;20.90;17.75;;;;;;;19.24;62.76;95453.06;5010944;28;20201;-63
2022/11/09 11:18:19;;;;;;;25.40;19.23;;;;;;;19.20;62.80;95437.13;5010815;28;20198;-61